Time;durP1;ratioP1;P1;durP2;ratioP2;P2;SDS_P1;SDS_P2;PMS_P1;PMS_P2;Temp;Humidity;BMP_temperature;BMP_pressure;BME280_temperature;BME280_humidity;BME280_pressure;Samples;Min_cycle;Max_cycle;Signal;HPM_P1;HPM_P2
2023/02/21 02:16:43;;;;;;;7.00;1.20;;;;;;;7.87;86.57;99309.07;104362;1275;101323;-79
2023/02/21 02:20:02;;;;;;;3.50;0.70;;;;;;;7.87;86.54;99316.73;104416;1274;99273;-79
2023/02/21 02:23:20;;;;;;;2.80;1.80;;;;;;;7.85;86.58;99318.13;104720;1274;99217;-78
2023/02/21 02:26:21;;;;;;;2.40;0.80;;;;;;;7.84;86.32;99315.34;104542;1277;97920;-79
2023/02/21 02:29:43;;;;;;;3.00;1.00;;;;;;;7.83;86.01;99308.52;104538;1276;97885;-79
2023/02/21 02:33:00;;;;;;;3.90;1.20;;;;;;;7.81;85.84;99316.19;104366;1274;103222;-77
2023/02/21 02:36:17;;;;;;;2.70;0.90;;;;;;;7.78;85.38;99313.67;104317;1278;99104;-79
2023/02/21 02:39:28;;;;;;;1.80;0.70;;;;;;;7.77;85.03;99308.50;104307;1274;98116;-77
2023/02/21 02:42:30;;;;;;;2.90;0.90;;;;;;;7.75;84.93;99314.15;104523;1276;98110;-79
2023/02/21 02:45:22;;;;;;;2.00;0.70;;;;;;;7.73;84.37;99313.56;104396;1274;98035;-78
2023/02/21 02:48:13;;;;;;;2.40;0.60;;;;;;;7.71;83.97;99321.91;104419;1274;102717;-77
2023/02/21 02:51:02;;;;;;;2.60;1.00;;;;;;;7.70;83.84;99320.69;104508;1274;100959;-79
2023/02/21 02:53:47;;;;;;;6.00;1.60;;;;;;;7.68;83.40;99326.77;104304;1280;99023;-78
2023/02/21 02:56:35;;;;;;;4.20;0.80;;;;;;;7.68;83.18;99322.86;104291;1275;137988;-78
2023/02/21 02:59:25;;;;;;;3.00;1.00;;;;;;;7.70;83.08;99323.69;104406;1277;98763;-77
2023/02/21 03:02:40;;;;;;;4.80;0.90;;;;;;;7.69;82.92;99317.91;104342;1275;101996;-79
2023/02/21 03:05:37;;;;;;;6.00;1.10;;;;;;;7.69;83.14;99319.75;104518;1273;101591;-79
2023/02/21 03:08:49;;;;;;;3.50;0.60;;;;;;;7.68;83.08;99323.23;104472;1276;97993;-78
2023/02/21 03:11:41;;;;;;;1.60;0.60;;;;;;;7.67;83.03;99324.46;104317;1274;98026;-79
2023/02/21 03:14:32;;;;;;;4.30;0.70;;;;;;;7.63;83.03;99325.79;104506;1277;98490;-78
2023/02/21 03:17:21;;;;;;;5.90;1.40;;;;;;;7.60;82.74;99323.89;104883;1280;102320;-77
2023/02/21 03:20:09;;;;;;;3.10;1.40;;;;;;;7.58;82.30;99324.41;104453;1275;100138;-77
2023/02/21 03:22:57;;;;;;;3.10;1.10;;;;;;;7.55;81.95;99321.54;104465;1273;98664;-78
2023/02/21 03:25:44;;;;;;;6.90;1.40;;;;;;;7.54;81.85;99314.97;104340;1281;98024;-79
2023/02/21 03:28:32;;;;;;;3.40;1.10;;;;;;;7.52;81.52;99320.41;104367;1278;99171;-78
2023/02/21 03:31:23;;;;;;;11.20;2.10;;;;;;;7.49;81.16;99318.15;104504;1274;102260;-79
2023/02/21 03:34:09;;;;;;;5.60;0.90;;;;;;;7.46;81.07;99304.73;104373;1277;99207;-77
2023/02/21 03:36:54;;;;;;;6.10;1.20;;;;;;;7.41;81.07;99312.38;104467;1275;98953;-79
2023/02/21 03:39:39;;;;;;;4.80;1.20;;;;;;;7.38;81.14;99308.09;104398;1280;97943;-79
2023/02/21 03:42:25;;;;;;;4.00;1.20;;;;;;;7.35;81.18;99323.20;104417;1274;98433;-78
2023/02/21 03:45:10;;;;;;;5.70;1.40;;;;;;;7.32;80.98;99320.89;104190;1274;102044;-78
2023/02/21 03:47:55;;;;;;;8.30;1.30;;;;;;;7.29;80.83;99319.52;104331;1274;100451;-79
2023/02/21 03:50:40;;;;;;;7.10;1.50;;;;;;;7.26;80.66;99328.80;104382;1274;97989;-78
2023/02/21 03:53:26;;;;;;;6.80;1.50;;;;;;;7.23;80.40;99321.16;104432;1277;97943;-78
2023/02/21 03:56:11;;;;;;;6.50;1.60;;;;;;;7.19;80.24;99323.43;104442;1273;98000;-78
2023/02/21 03:59:10;;;;;;;8.20;1.50;;;;;;;7.16;79.86;99327.80;104384;1274;102764;-78
2023/02/21 04:01:56;;;;;;;7.60;1.30;;;;;;;7.13;79.59;99327.41;104382;1277;99114;-79
2023/02/21 04:04:42;;;;;;;6.50;1.50;;;;;;;7.12;79.49;99322.11;104417;1274;98063;-78
2023/02/21 04:07:31;;;;;;;12.80;5.70;;;;;;;7.09;79.16;99321.16;104433;1277;97880;-78
2023/02/21 04:10:16;;;;;;;9.10;2.20;;;;;;;7.08;78.97;99318.83;104475;1274;99575;-78
2023/02/21 04:13:03;;;;;;;9.60;2.60;;;;;;;7.06;78.21;99321.46;104459;1276;101424;-77
2023/02/21 04:15:51;;;;;;;9.30;1.90;;;;;;;7.04;78.15;99323.75;104514;1277;99643;-77
2023/02/21 04:18:36;;;;;;;8.90;2.00;;;;;;;7.03;77.96;99327.27;104383;1277;98795;-78
2023/02/21 04:21:21;;;;;;;8.50;2.00;;;;;;;7.01;77.93;99321.65;104528;1277;98585;-78
2023/02/21 04:24:07;;;;;;;11.00;1.70;;;;;;;6.98;77.84;99323.30;104482;1275;98411;-77
2023/02/21 04:26:51;;;;;;;7.70;1.90;;;;;;;6.96;77.77;99318.70;104415;1273;102092;-77
2023/02/21 04:29:37;;;;;;;7.20;2.10;;;;;;;6.95;77.65;99312.91;104336;1275;99303;-78
2023/02/21 04:32:21;;;;;;;9.80;2.80;;;;;;;6.93;77.72;99322.73;104329;1274;98762;-78
2023/02/21 04:35:06;;;;;;;9.20;1.70;;;;;;;6.91;77.49;99319.36;105123;1277;97988;-77
2023/02/21 04:37:51;;;;;;;5.00;1.40;;;;;;;6.90;77.31;99311.70;104372;1274;97806;-78
2023/02/21 04:40:37;;;;;;;4.30;1.60;;;;;;;6.90;77.42;99311.95;104477;1279;102033;-77
2023/02/21 04:43:21;;;;;;;7.50;1.50;;;;;;;6.88;77.04;99322.79;104454;1274;99354;-79
2023/02/21 04:46:06;;;;;;;9.40;1.90;;;;;;;6.88;76.93;99326.67;104402;1280;99019;-78
2023/02/21 04:48:51;;;;;;;8.90;1.60;;;;;;;6.90;77.21;99334.69;104240;1279;98129;-79
2023/02/21 04:51:36;;;;;;;9.80;1.80;;;;;;;6.92;77.25;99340.95;104330;1274;97955;-78
2023/02/21 04:54:20;;;;;;;5.80;1.50;;;;;;;6.93;77.42;99331.82;104333;1277;101420;-79
2023/02/21 04:57:05;;;;;;;6.80;1.90;;;;;;;6.94;77.42;99337.33;104657;1274;99894;-76
2023/02/21 04:59:58;;;;;;;7.40;1.70;;;;;;;6.95;77.62;99340.85;104380;1275;98501;-77
2023/02/21 05:02:44;;;;;;;8.20;2.20;;;;;;;6.96;77.77;99342.86;104433;1279;97987;-79
2023/02/21 05:05:28;;;;;;;6.90;1.60;;;;;;;6.97;78.07;99339.19;104543;1277;99073;-78
2023/02/21 05:08:13;;;;;;;8.70;2.00;;;;;;;6.98;78.46;99338.04;104503;1275;102650;-79
2023/02/21 05:10:58;;;;;;;7.80;1.20;;;;;;;6.98;78.23;99342.83;104499;1277;99418;-79
2023/02/21 05:13:44;;;;;;;9.20;1.70;;;;;;;6.96;78.10;99340.90;104465;1277;99174;-79
2023/02/21 05:16:29;;;;;;;5.50;1.60;;;;;;;6.96;78.22;99337.55;104403;1278;98935;-78
2023/02/21 05:19:26;;;;;;;8.20;2.70;;;;;;;6.95;78.37;99335.23;104574;1280;98528;-78
2023/02/21 05:22:10;;;;;;;12.20;2.20;;;;;;;6.93;77.97;99335.31;104512;1274;101398;-79
2023/02/21 05:24:55;;;;;;;6.80;1.70;;;;;;;6.92;77.50;99342.15;104505;1274;99180;-78
2023/02/21 05:27:40;;;;;;;6.10;1.60;;;;;;;6.92;77.18;99342.14;104606;1274;97938;-78
2023/02/21 05:30:25;;;;;;;9.60;2.00;;;;;;;6.92;77.02;99340.52;104526;1277;97994;-77
2023/02/21 05:33:09;;;;;;;9.20;2.10;;;;;;;6.92;76.35;99345.33;104437;1276;97984;-78
2023/02/21 05:35:55;;;;;;;9.80;1.70;;;;;;;6.92;75.95;99350.82;104378;1277;101984;-78
2023/02/21 05:38:51;;;;;;;11.40;2.40;;;;;;;6.93;75.82;99357.86;104403;1277;100205;-79
2023/02/21 05:41:36;;;;;;;7.20;1.70;;;;;;;6.93;75.67;99360.36;104356;1276;98358;-77
2023/02/21 05:44:21;;;;;;;11.00;2.00;;;;;;;6.93;75.33;99364.71;104198;1278;97978;-77
2023/02/21 05:47:06;;;;;;;7.70;1.80;;;;;;;6.93;75.02;99354.47;104048;1274;98340;-79
2023/02/21 05:49:51;;;;;;;7.00;1.30;;;;;;;6.93;74.86;99357.34;104074;1277;101360;-79
2023/02/21 05:52:36;;;;;;;9.60;1.70;;;;;;;6.93;74.76;99359.83;104070;1277;100426;-77
2023/02/21 05:55:21;;;;;;;10.20;1.70;;;;;;;6.91;74.37;99358.39;104027;1278;98742;-76
2023/02/21 05:58:05;;;;;;;17.00;2.20;;;;;;;6.91;74.23;99353.84;104203;1279;97983;-79
2023/02/21 06:00:51;;;;;;;9.50;2.00;;;;;;;6.91;74.31;99353.52;104623;1277;98116;-80
2023/02/21 06:03:36;;;;;;;11.90;2.30;;;;;;;6.90;74.27;99355.85;104146;1280;102249;-77
2023/02/21 06:06:20;;;;;;;14.30;2.30;;;;;;;6.89;74.09;99359.93;104026;1278;100437;-78
2023/02/21 06:09:05;;;;;;;9.70;1.80;;;;;;;6.89;74.02;99364.89;104079;1276;98033;-77
2023/02/21 06:11:54;;;;;;;7.20;2.00;;;;;;;6.90;74.04;99350.77;104447;1274;97985;-80
2023/02/21 06:14:39;;;;;;;5.90;1.80;;;;;;;6.90;74.05;99353.30;104689;1275;98829;-80
2023/02/21 06:17:24;;;;;;;6.10;2.40;;;;;;;6.89;74.03;99359.39;104858;1277;101429;-80
2023/02/21 06:20:13;;;;;;;11.30;2.40;;;;;;;6.89;74.16;99364.06;104445;1278;100696;-79
2023/02/21 06:22:58;;;;;;;10.80;2.00;;;;;;;6.88;74.61;99365.45;104476;1277;98825;-78
2023/02/21 06:25:42;;;;;;;9.90;2.30;;;;;;;6.87;75.01;99375.44;104241;1280;98022;-78
2023/02/21 06:28:31;;;;;;;9.50;3.00;;;;;;;6.87;75.06;99378.10;104349;1277;98493;-78
2023/02/21 06:31:17;;;;;;;10.20;2.30;;;;;;;6.87;75.27;99382.96;104530;1277;101455;-79
2023/02/21 06:34:02;;;;;;;10.20;2.10;;;;;;;6.86;75.33;99384.64;104758;1275;100669;-77
2023/02/21 06:36:51;;;;;;;8.00;2.70;;;;;;;6.86;75.61;99385.78;104440;1273;99077;-78
2023/02/21 06:39:38;;;;;;;9.90;2.30;;;;;;;6.85;75.64;99381.77;104503;1287;97970;-78
2023/02/21 06:42:23;;;;;;;7.70;2.40;;;;;;;6.84;76.08;99385.89;104410;1276;98418;-79
2023/02/21 06:45:08;;;;;;;8.70;2.30;;;;;;;6.84;76.00;99383.42;104427;1274;103357;-78
2023/02/21 06:47:53;;;;;;;7.90;1.70;;;;;;;6.85;76.12;99386.89;104618;1277;99140;-79
2023/02/21 06:50:37;;;;;;;11.20;2.00;;;;;;;6.86;76.30;99391.52;104372;1280;98483;-78
2023/02/21 06:53:22;;;;;;;11.70;3.40;;;;;;;6.86;76.24;99392.30;104403;1275;98030;-77
2023/02/21 06:56:07;;;;;;;9.40;2.30;;;;;;;6.86;76.23;99401.92;104435;1277;97900;-79
2023/02/21 06:58:53;;;;;;;18.80;3.60;;;;;;;6.86;76.17;99404.57;104442;1277;101413;-78
2023/02/21 07:01:37;;;;;;;17.30;2.80;;;;;;;6.86;76.10;99404.41;104285;1280;101297;-79
2023/02/21 07:04:23;;;;;;;14.00;2.30;;;;;;;6.86;75.79;99409.12;104389;1277;97914;-79
2023/02/21 07:07:08;;;;;;;11.40;2.10;;;;;;;6.87;75.87;99421.21;104068;1290;97908;-79
2023/02/21 07:09:52;;;;;;;11.20;2.80;;;;;;;6.87;75.62;99437.89;104355;1274;98497;-80
2023/02/21 07:12:37;;;;;;;8.10;2.30;;;;;;;6.88;75.67;99438.71;104393;1277;101446;-78
2023/02/21 07:15:22;;;;;;;7.60;2.30;;;;;;;6.88;75.76;99451.61;104213;1277;99122;-79
2023/02/21 07:18:07;;;;;;;12.40;2.00;;;;;;;6.88;76.07;99456.77;104496;1278;98407;-79
2023/02/21 07:20:51;;;;;;;10.90;2.50;;;;;;;6.88;76.19;99472.45;104409;1274;98136;-79
2023/02/21 07:23:36;;;;;;;12.50;2.90;;;;;;;6.86;76.25;99479.95;104372;1278;99644;-78
2023/02/21 07:26:21;;;;;;;10.10;2.20;;;;;;;6.83;76.59;99486.86;104405;1273;101888;-78
2023/02/21 07:29:05;;;;;;;8.80;2.00;;;;;;;6.82;76.95;99490.73;104433;1279;100941;-78
2023/02/21 07:31:51;;;;;;;11.00;2.50;;;;;;;6.80;77.19;99496.08;104351;1278;98032;-77
2023/02/21 07:34:35;;;;;;;12.40;2.60;;;;;;;6.78;77.37;99501.84;104319;1274;98935;-79
2023/02/21 07:37:20;;;;;;;9.80;2.20;;;;;;;6.78;77.75;99506.20;104313;1277;98509;-79
2023/02/21 07:40:06;;;;;;;8.20;2.60;;;;;;;6.77;77.96;99510.66;104477;1274;101415;-82
2023/02/21 07:42:54;;;;;;;14.80;3.70;;;;;;;6.76;78.22;99518.60;104459;1277;99095;-78
2023/02/21 07:45:38;;;;;;;12.60;3.10;;;;;;;6.76;78.62;99521.47;104416;1276;97982;-77
2023/02/21 07:48:23;;;;;;;9.90;2.40;;;;;;;6.77;78.66;99523.67;104138;1277;97988;-76
2023/02/21 07:51:09;;;;;;;11.60;2.50;;;;;;;6.79;78.67;99529.24;104612;1282;97974;-85
2023/02/21 07:53:55;;;;;;;8.90;2.00;;;;;;;6.81;78.87;99526.85;105335;1274;102718;-86
2023/02/21 07:56:44;;;;;;;12.70;2.70;;;;;;;6.83;78.70;99534.65;104936;1273;101015;-86
2023/02/21 07:59:30;;;;;;;12.40;2.70;;;;;;;6.86;78.64;99537.63;104993;1275;98008;-85
2023/02/21 08:02:15;;;;;;;14.10;2.40;;;;;;;6.89;78.74;99536.35;104712;1277;99359;-86
2023/02/21 08:05:00;;;;;;;12.30;2.40;;;;;;;6.92;78.94;99541.82;105225;1277;97998;-87
2023/02/21 08:07:57;;;;;;;11.80;2.60;;;;;;;6.95;78.98;99544.45;105121;1283;103611;-85
2023/02/21 08:10:46;;;;;;;8.10;2.30;;;;;;;6.98;79.46;99549.92;105085;1275;101399;-80
2023/02/21 08:13:30;;;;;;;10.40;3.30;;;;;;;7.02;79.48;99553.73;105010;1274;98520;-77
2023/02/21 08:16:15;;;;;;;10.40;2.50;;;;;;;7.03;79.17;99560.53;105800;1277;96744;-80
2023/02/21 08:19:00;;;;;;;10.70;2.40;;;;;;;7.04;79.45;99564.88;105824;1273;97794;-79
2023/02/21 08:21:46;;;;;;;12.60;3.00;;;;;;;7.06;79.55;99570.52;105339;1277;101449;-81
2023/02/21 08:24:31;;;;;;;13.80;3.80;;;;;;;7.07;79.38;99574.02;105580;1279;99634;-79
2023/02/21 08:27:17;;;;;;;10.00;2.40;;;;;;;7.08;79.36;99578.86;105103;1276;97991;-78
2023/02/21 08:30:02;;;;;;;8.80;2.60;;;;;;;7.08;79.60;99582.66;104478;1274;97919;-75
2023/02/21 08:32:47;;;;;;;17.10;6.10;;;;;;;7.08;79.64;99588.52;104318;1279;98521;-75
2023/02/21 08:35:32;;;;;;;14.00;3.30;;;;;;;7.08;79.63;99591.60;104277;1277;102705;-77
2023/02/21 08:38:19;;;;;;;14.80;3.90;;;;;;;7.06;79.76;99596.54;104674;1277;99528;-76
2023/02/21 08:41:05;;;;;;;13.70;2.40;;;;;;;7.07;80.05;99602.52;104040;1283;97997;-76
2023/02/21 08:43:49;;;;;;;10.30;3.10;;;;;;;7.06;80.33;99608.61;104150;1287;99325;-74
2023/02/21 08:46:34;;;;;;;18.00;7.00;;;;;;;7.06;80.68;99613.29;104138;1277;98500;-76
2023/02/21 08:49:19;;;;;;;11.70;3.80;;;;;;;7.03;81.00;99620.37;103999;1279;110115;-76
2023/02/21 08:52:10;;;;;;;25.50;7.90;;;;;;;6.99;81.47;99624.85;104353;1277;100994;-91
2023/02/21 08:55:06;;;;;;;20.00;7.10;;;;;;;6.96;81.46;99627.76;105018;1274;98447;-85
2023/02/21 08:57:52;;;;;;;38.10;13.70;;;;;;;6.94;82.10;99633.66;104980;1279;97953;-83
2023/02/21 09:00:38;;;;;;;18.40;4.70;;;;;;;6.91;82.67;99632.98;105016;1279;97986;-85
2023/02/21 09:03:23;;;;;;;16.80;3.90;;;;;;;6.85;82.97;99637.62;105093;1279;102015;-88
2023/02/21 09:06:08;;;;;;;11.30;4.70;;;;;;;6.79;83.19;99633.48;105229;1279;99114;-80
2023/02/21 09:08:53;;;;;;;22.40;7.00;;;;;;;6.77;83.69;99630.84;105388;1278;99004;-81
2023/02/21 09:11:38;;;;;;;83.30;35.20;;;;;;;6.80;84.04;99634.36;105248;1281;98694;-81
2023/02/21 09:14:23;;;;;;;13.50;5.10;;;;;;;6.84;84.06;99635.77;105342;1277;99692;-80
2023/02/21 09:17:11;;;;;;;14.10;3.60;;;;;;;6.86;83.97;99643.04;105414;1273;103571;-80
2023/02/21 09:19:56;;;;;;;18.00;4.10;;;;;;;6.87;84.40;99645.55;105441;1274;99186;-78
2023/02/21 09:22:43;;;;;;;13.00;3.00;;;;;;;6.89;84.45;99652.00;105577;1273;99113;-79
2023/02/21 09:25:28;;;;;;;8.40;2.20;;;;;;;6.91;84.07;99655.42;105221;1273;97987;-79
2023/02/21 09:28:14;;;;;;;13.70;3.20;;;;;;;6.87;83.94;99660.09;105367;1275;96435;-84
2023/02/21 09:30:59;;;;;;;13.20;2.40;;;;;;;6.87;84.10;99665.44;104959;1277;102029;-81
2023/02/21 09:33:44;;;;;;;13.90;3.40;;;;;;;6.86;84.28;99670.51;105136;1280;99222;-79
2023/02/21 09:36:37;;;;;;;12.00;2.40;;;;;;;6.86;84.20;99670.52;104989;1274;97921;-88
2023/02/21 09:39:29;;;;;;;11.90;3.70;;;;;;;6.86;84.21;99672.85;104935;1282;97999;-79
2023/02/21 09:42:23;;;;;;;8.40;2.10;;;;;;;6.90;84.31;99679.64;104500;1280;99642;-86
2023/02/21 09:45:15;;;;;;;15.60;3.40;;;;;;;6.95;84.04;99684.87;105123;1273;102504;-84
2023/02/21 09:48:07;;;;;;;11.60;3.00;;;;;;;7.00;84.20;99697.77;104972;1273;100525;-75
2023/02/21 09:50:57;;;;;;;7.20;2.30;;;;;;;6.94;84.64;99701.83;104264;1273;98109;-78
2023/02/21 09:53:45;;;;;;;13.20;3.00;;;;;;;6.85;84.97;99709.69;104417;1278;97951;-77
2023/02/21 09:56:36;;;;;;;15.60;3.10;;;;;;;6.82;85.75;99712.22;104527;1276;98746;-74
2023/02/21 09:59:21;;;;;;;10.20;2.30;;;;;;;6.82;85.94;99715.18;104397;1283;101458;-74
2023/02/21 10:02:15;;;;;;;13.10;3.70;;;;;;;6.83;86.21;99717.39;104428;1277;99856;-75
2023/02/21 10:05:30;;;;;;;6.90;2.10;;;;;;;6.87;86.72;99713.66;104400;1279;98521;-75
2023/02/21 10:08:36;;;;;;;11.70;2.80;;;;;;;6.91;86.93;99717.48;104241;1274;97961;-75
2023/02/21 10:11:39;;;;;;;8.40;2.80;;;;;;;6.96;86.64;99720.79;104975;1277;98781;-85
2023/02/21 10:15:00;;;;;;;9.80;2.40;;;;;;;6.99;86.40;99724.84;105535;1273;101342;-87
2023/02/21 10:17:55;;;;;;;9.00;2.40;;;;;;;7.04;86.06;99727.43;105614;1273;100454;-80
2023/02/21 10:20:50;;;;;;;14.20;3.60;;;;;;;7.11;86.01;99723.05;105452;1273;98044;-78
2023/02/21 10:23:46;;;;;;;12.10;3.30;;;;;;;7.20;85.96;99721.27;104314;1279;98106;-78
2023/02/21 10:26:37;;;;;;;11.10;3.00;;;;;;;7.28;85.72;99728.55;104441;1273;97876;-78
2023/02/21 10:29:29;;;;;;;13.70;2.90;;;;;;;7.34;85.25;99734.61;105350;1274;102591;-81
2023/02/21 10:32:14;;;;;;;10.80;2.60;;;;;;;7.40;85.21;99742.77;105728;1273;99814;-84
2023/02/21 10:35:00;;;;;;;14.00;3.30;;;;;;;7.44;84.75;99741.70;104867;1279;98519;-79
2023/02/21 10:37:55;;;;;;;10.40;3.00;;;;;;;7.49;84.51;99740.69;104473;1273;97815;-81
2023/02/21 10:40:58;;;;;;;12.80;2.60;;;;;;;7.52;83.89;99751.17;104593;1273;97808;-81
2023/02/21 10:43:48;;;;;;;12.30;2.80;;;;;;;7.53;83.63;99751.80;105230;1275;103270;-80
2023/02/21 10:46:39;;;;;;;11.90;2.60;;;;;;;7.58;83.56;99756.81;105408;1277;99175;-78
2023/02/21 10:49:30;;;;;;;9.80;3.10;;;;;;;7.62;83.06;99760.27;105159;1277;98358;-80
2023/02/21 10:52:20;;;;;;;7.60;1.90;;;;;;;7.64;82.82;99761.90;104599;1278;97904;-79
2023/02/21 10:55:12;;;;;;;10.30;2.30;;;;;;;7.64;82.21;99759.60;104507;1273;98685;-77
2023/02/21 10:58:05;;;;;;;9.40;2.70;;;;;;;7.61;81.94;99764.04;104426;1277;102482;-78
2023/02/21 11:00:50;;;;;;;9.70;2.50;;;;;;;7.62;82.40;99765.19;104339;1273;99115;-78
2023/02/21 11:03:36;;;;;;;10.30;2.40;;;;;;;7.66;82.36;99772.90;104350;1273;98001;-78
2023/02/21 11:10:02;;;;;;;11.10;2.50;;;;;;;7.70;81.75;99778.73;106046;1273;98451;-90
2023/02/21 11:13:14;;;;;;;12.70;2.90;;;;;;;7.71;81.41;99782.18;103515;1275;2018511;-77
2023/02/21 11:16:20;;;;;;;10.80;2.60;;;;;;;7.73;81.82;99787.66;104305;1277;99126;-75
2023/02/21 11:19:06;;;;;;;13.10;2.60;;;;;;;7.75;81.45;99788.84;103935;1277;98526;-76
2023/02/21 11:21:56;;;;;;;8.70;2.80;;;;;;;7.75;81.22;99791.09;104303;1277;97984;-86
2023/02/21 11:24:52;;;;;;;8.50;2.20;;;;;;;7.75;81.23;99793.72;104510;1282;98634;-78
2023/02/21 11:27:38;;;;;;;9.80;2.60;;;;;;;7.72;80.89;99793.40;104064;1274;101435;-78
2023/02/21 11:30:23;;;;;;;10.80;2.40;;;;;;;7.69;80.80;99790.73;104158;1274;100672;-78
2023/02/21 11:33:09;;;;;;;10.30;2.60;;;;;;;7.68;80.78;99796.99;104389;1274;98139;-76
2023/02/21 11:36:13;;;;;;;7.40;2.50;;;;;;;7.71;81.23;99794.68;104292;1276;98356;-77
2023/02/21 11:39:03;;;;;;;8.90;3.30;;;;;;;7.79;81.20;99805.70;104189;1275;99605;-78
2023/02/21 11:41:56;;;;;;;11.90;2.40;;;;;;;7.87;80.83;99803.85;103998;1273;102659;-77
2023/02/21 11:44:42;;;;;;;9.60;2.10;;;;;;;7.96;80.53;99806.36;104033;1276;100431;-77
2023/02/21 11:47:34;;;;;;;8.10;1.90;;;;;;;8.02;80.28;99806.23;103977;1280;99330;-78
2023/02/21 11:50:49;;;;;;;8.30;2.00;;;;;;;8.08;79.78;99804.86;104113;1277;99278;-76
2023/02/21 11:53:41;;;;;;;10.90;2.20;;;;;;;8.14;79.35;99807.13;104068;1277;99139;-77
2023/02/21 11:56:29;;;;;;;13.60;3.00;;;;;;;8.15;78.92;99803.86;104238;1273;102762;-77
2023/02/21 11:59:34;;;;;;;10.20;2.20;;;;;;;8.14;78.83;99805.58;103974;1279;100381;-78
2023/02/21 12:02:41;;;;;;;18.00;2.80;;;;;;;8.17;78.98;99811.06;104308;1280;98292;-78
2023/02/21 12:05:52;;;;;;;19.80;2.30;;;;;;;8.23;78.87;99814.61;103987;1273;98106;-77
2023/02/21 12:08:43;;;;;;;14.40;2.70;;;;;;;8.33;79.04;99811.08;103985;1273;97984;-77
2023/02/21 12:11:47;;;;;;;9.90;2.20;;;;;;;8.36;78.33;99819.27;104041;1280;101329;-77
2023/02/21 12:15:10;;;;;;;8.80;2.50;;;;;;;8.31;78.16;99818.12;104080;1276;100172;-78
2023/02/21 12:18:33;;;;;;;8.60;2.30;;;;;;;8.29;78.23;99815.44;104366;1273;98102;-79
2023/02/21 12:21:50;;;;;;;14.90;2.90;;;;;;;8.38;78.59;99819.67;104296;1273;97994;-78
2023/02/21 12:24:52;;;;;;;8.70;2.50;;;;;;;8.44;78.56;99822.77;104148;1280;98153;-76
2023/02/21 12:28:15;;;;;;;12.50;2.90;;;;;;;8.47;78.42;99827.95;105580;1274;101366;-83
2023/02/21 12:31:14;;;;;;;10.80;2.70;;;;;;;8.43;77.40;99833.17;105305;1273;100370;-78
2023/02/21 12:34:18;;;;;;;9.60;2.50;;;;;;;8.37;76.96;99836.52;104912;1278;98003;-92
2023/02/21 12:37:16;;;;;;;16.10;4.10;;;;;;;8.31;76.80;99824.78;105456;1278;96379;-83
2023/02/21 12:40:32;;;;;;;8.00;2.60;;;;;;;8.29;77.09;99833.14;105353;1276;98110;-89
2023/02/21 12:43:42;;;;;;;11.70;3.30;;;;;;;8.27;77.22;99831.73;104994;1273;102560;-86
2023/02/21 12:46:37;;;;;;;12.00;2.20;;;;;;;8.29;76.87;99836.16;105267;1273;100371;-83
2023/02/21 12:49:34;;;;;;;14.70;3.50;;;;;;;8.30;76.82;99841.80;105035;1278;97984;-83
2023/02/21 12:52:36;;;;;;;11.90;2.60;;;;;;;8.34;76.62;99852.23;105008;1274;98167;-86
2023/02/21 12:55:28;;;;;;;9.10;2.80;;;;;;;8.30;76.25;99853.26;105064;1273;98500;-88
2023/02/21 12:58:35;;;;;;;17.20;3.40;;;;;;;8.24;76.59;99855.36;105163;1273;101427;-90
2023/02/21 13:01:27;;;;;;;12.90;3.00;;;;;;;8.27;77.20;99859.38;105262;1273;99052;-80
2023/02/21 13:04:33;;;;;;;15.00;3.50;;;;;;;8.30;77.31;99864.92;105548;1273;98602;-78
2023/02/21 13:07:37;;;;;;;18.90;2.90;;;;;;;8.28;77.15;99866.67;104598;1273;97930;-78
2023/02/21 13:10:26;;;;;;;14.40;2.60;;;;;;;8.23;76.66;99867.11;104683;1280;98710;-77
2023/02/21 13:13:18;;;;;;;12.20;3.00;;;;;;;8.21;77.09;99865.27;104678;1276;102168;-78
2023/02/21 13:16:11;;;;;;;17.70;5.00;;;;;;;8.14;77.01;99868.89;104914;1274;99248;-78
2023/02/21 13:19:02;;;;;;;14.50;3.90;;;;;;;8.06;77.45;99878.45;104635;1273;98490;-78
2023/02/21 13:22:03;;;;;;;15.30;3.60;;;;;;;7.96;77.90;99880.95;104676;1280;98553;-79
2023/02/21 13:25:03;;;;;;;16.30;3.00;;;;;;;7.87;78.70;99891.35;104747;1275;98499;-78
2023/02/21 13:28:11;;;;;;;17.50;3.70;;;;;;;7.74;78.92;99892.02;104845;1274;101551;-84
2023/02/21 13:31:00;;;;;;;15.70;3.50;;;;;;;7.62;79.32;99893.69;105341;1273;99534;-85
2023/02/21 13:33:56;;;;;;;17.70;3.50;;;;;;;7.55;79.60;99892.94;105293;1273;97901;-86
2023/02/21 13:36:43;;;;;;;13.90;3.00;;;;;;;7.51;80.37;99893.21;105081;1277;98059;-86
2023/02/21 13:39:35;;;;;;;12.30;2.70;;;;;;;7.49;80.69;99893.35;105067;1273;98440;-87
2023/02/21 13:42:24;;;;;;;13.80;2.80;;;;;;;7.43;81.15;99896.27;104810;1273;102508;-78
2023/02/21 13:45:21;;;;;;;14.80;3.20;;;;;;;7.37;81.39;99899.94;104573;1273;99156;-78
2023/02/21 13:48:20;;;;;;;14.70;3.70;;;;;;;7.30;81.67;99899.71;104665;1279;98574;-85
2023/02/21 13:51:46;;;;;;;17.00;4.00;;;;;;;7.27;82.17;99903.43;104894;1273;97898;-79
2023/02/21 13:54:31;;;;;;;22.00;4.50;;;;;;;7.29;82.42;99908.86;104477;1276;97980;-77
2023/02/21 13:57:34;;;;;;;14.00;3.90;;;;;;;7.34;82.70;99909.73;105331;1273;102709;-80
2023/02/21 14:00:28;;;;;;;19.20;3.00;;;;;;;7.38;82.36;99907.96;105639;1273;99206;-80
2023/02/21 14:03:16;;;;;;;16.70;3.70;;;;;;;7.44;82.40;99914.31;105427;1273;99767;-80
2023/02/21 14:06:07;;;;;;;15.10;3.60;;;;;;;7.51;82.27;99914.95;105598;1272;98763;-81
2023/02/21 14:09:00;;;;;;;24.90;3.90;;;;;;;7.55;81.99;99915.83;105650;1275;97878;-81
2023/02/21 14:11:50;;;;;;;30.40;4.60;;;;;;;7.59;81.64;99916.70;105738;1273;102574;-81
2023/02/21 14:14:38;;;;;;;18.70;4.20;;;;;;;7.65;81.77;99913.59;105481;1272;99095;-78
2023/02/21 14:17:27;;;;;;;22.40;4.90;;;;;;;7.69;81.39;99911.95;104626;1279;99028;-78
2023/02/21 14:20:20;;;;;;;23.10;5.30;;;;;;;7.71;80.46;99913.80;104913;1273;97882;-78
2023/02/21 14:23:05;;;;;;;30.70;8.00;;;;;;;7.74;80.31;99920.05;104853;1276;98429;-78
2023/02/21 14:25:55;;;;;;;30.80;6.40;;;;;;;7.76;80.17;99922.27;104862;1274;101449;-78
2023/02/21 14:28:55;;;;;;;19.20;5.50;;;;;;;7.78;79.95;99923.27;104754;1277;99149;-78
2023/02/21 14:31:57;;;;;;;31.30;11.30;;;;;;;7.79;79.40;99921.64;104725;1277;98871;-78
2023/02/21 14:34:52;;;;;;;18.20;4.80;;;;;;;7.78;78.88;99927.98;104797;1273;97990;-77
2023/02/21 14:37:42;;;;;;;23.80;5.40;;;;;;;7.77;78.87;99935.56;104780;1273;99861;-79
2023/02/21 14:40:31;;;;;;;20.30;4.90;;;;;;;7.77;78.81;99934.59;104767;1273;101611;-77
2023/02/21 14:43:36;;;;;;;21.60;5.30;;;;;;;7.78;78.57;99934.02;104790;1277;100233;-85
2023/02/21 14:46:34;;;;;;;19.60;3.90;;;;;;;7.77;78.35;99940.46;105261;1274;98930;-80
2023/02/21 14:49:43;;;;;;;24.70;7.30;;;;;;;7.77;78.04;99941.15;105114;1275;97923;-78
2023/02/21 14:52:44;;;;;;;16.20;3.70;;;;;;;7.77;77.89;99943.98;104680;1273;97910;-80
2023/02/21 14:55:53;;;;;;;18.70;4.30;;;;;;;7.77;77.76;99944.21;104810;1273;135089;-81
2023/02/21 14:59:06;;;;;;;14.90;4.00;;;;;;;7.76;77.72;99947.54;105257;1276;100883;-85
2023/02/21 15:02:25;;;;;;;17.50;4.10;;;;;;;7.77;77.95;99952.87;105089;1280;99025;-79
2023/02/21 15:05:25;;;;;;;24.70;6.70;;;;;;;7.78;77.95;99958.50;104737;1273;98063;-83
2023/02/21 15:08:22;;;;;;;20.50;5.30;;;;;;;7.79;77.72;99962.48;105291;1274;99715;-85
2023/02/21 15:11:16;;;;;;;26.40;6.40;;;;;;;7.79;77.66;99961.05;104603;1276;101395;-78
2023/02/21 15:14:12;;;;;;;21.50;4.70;;;;;;;7.78;77.71;99965.36;104684;1276;99346;-76
2023/02/21 15:17:00;;;;;;;23.40;6.10;;;;;;;7.78;77.80;99969.20;104450;1277;98759;-77
2023/02/21 15:19:44;;;;;;;33.00;9.70;;;;;;;7.78;78.11;99969.53;104407;1273;98499;-77
2023/02/21 15:22:37;;;;;;;21.80;6.00;;;;;;;7.78;78.24;99971.84;104470;1273;98535;-87
2023/02/21 15:25:24;;;;;;;31.50;7.00;;;;;;;7.77;78.19;99979.41;105060;1272;102595;-79
2023/02/21 15:28:29;;;;;;;22.90;6.20;;;;;;;7.76;78.14;99976.86;105159;1273;99778;-79
2023/02/21 15:31:16;;;;;;;23.30;5.30;;;;;;;7.74;78.05;99980.82;105017;1274;98586;-79
2023/02/21 15:34:01;;;;;;;17.70;4.70;;;;;;;7.72;78.05;99984.05;105149;1274;97990;-79
2023/02/21 15:37:12;;;;;;;19.70;4.80;;;;;;;7.71;78.15;99989.57;104950;1273;98049;-78
2023/02/21 15:40:23;;;;;;;20.10;5.20;;;;;;;7.68;78.10;99988.50;104823;1274;101442;-86